Time;durP1;ratioP1;P1;durP2;ratioP2;P2;SDS_P1;SDS_P2;PMS_P1;PMS_P2;Temp;Humidity;BMP_temperature;BMP_pressure;BME280_temperature;BME280_humidity;BME280_pressure;Samples;Min_cycle;Max_cycle;Signal;HPM_P1;HPM_P2
2022/06/23 00:01:16;;;;;;;6.55;1.98;;;;;;;20.15;74.77;96425.13;6155003;23;20018;-79
2022/06/23 00:03:45;;;;;;;6.32;1.85;;;;;;;20.12;75.41;96417.69;6155820;23;20121;-79
2022/06/23 00:06:27;;;;;;;6.10;2.13;;;;;;;20.14;79.79;96431.47;6155806;23;20025;-79
2022/06/23 00:08:55;;;;;;;10.43;3.67;;;;;;;20.20;80.69;96434.19;6155613;23;20049;-79
2022/06/23 00:11:24;;;;;;;8.40;3.25;;;;;;;20.24;82.87;96433.44;6155027;23;20065;-79
2022/06/23 00:14:02;;;;;;;4.47;2.17;;;;;;;20.22;80.45;96432.88;6155481;23;20109;-79
2022/06/23 00:16:30;;;;;;;6.75;1.92;;;;;;;20.19;77.68;96435.25;6155590;23;20021;-78
2022/06/23 00:18:58;;;;;;;9.40;2.58;;;;;;;20.12;77.47;96438.06;6155045;23;20028;-79
2022/06/23 00:21:30;;;;;;;7.25;2.28;;;;;;;20.05;76.84;96440.91;6155136;23;20053;-79
2022/06/23 00:24:01;;;;;;;7.57;1.90;;;;;;;20.02;76.98;96432.66;6155031;23;20105;-79
2022/06/23 00:26:32;;;;;;;4.63;1.77;;;;;;;20.00;76.73;96440.81;6155233;23;20053;-79
2022/06/23 00:29:05;;;;;;;6.25;2.50;;;;;;;19.98;76.87;96442.91;6155344;23;20017;-78
2022/06/23 00:31:36;;;;;;;6.78;2.35;;;;;;;19.97;76.70;96438.69;6155573;23;20032;-79
2022/06/23 00:34:16;;;;;;;5.72;2.15;;;;;;;19.96;76.59;96429.13;6155383;23;20348;-78
2022/06/23 00:36:49;;;;;;;7.03;2.65;;;;;;;19.95;77.61;96428.31;6155111;23;20096;-79
2022/06/23 00:39:23;;;;;;;7.05;3.42;;;;;;;20.03;81.03;96428.94;6156334;23;20053;-79
2022/06/23 00:41:51;;;;;;;12.57;4.65;;;;;;;20.11;83.93;96425.88;6156214;23;20060;-79
2022/06/23 00:44:28;;;;;;;7.05;3.20;;;;;;;20.14;83.53;96434.13;6154561;23;20117;-79
2022/06/23 00:47:01;;;;;;;10.65;3.22;;;;;;;20.09;79.88;96433.25;6155479;23;20053;-79
2022/06/23 00:49:36;;;;;;;9.27;3.10;;;;;;;20.03;79.03;96428.94;6154697;23;20096;-79
2022/06/23 00:52:16;;;;;;;8.18;3.50;;;;;;;20.04;83.08;96428.69;6155062;23;20021;-78
2022/06/23 00:54:50;;;;;;;7.32;3.58;;;;;;;20.11;84.57;96431.97;6154936;23;20458;-79
2022/06/23 00:57:25;;;;;;;6.07;2.67;;;;;;;20.10;80.68;96437.53;6154784;23;20100;-78
2022/06/23 00:59:59;;;;;;;11.18;3.05;;;;;;;20.02;79.47;96433.44;6155178;23;20349;-79
2022/06/23 01:02:35;;;;;;;11.00;2.70;;;;;;;19.96;79.24;96434.41;6155129;23;20104;-79
2022/06/23 01:05:10;;;;;;;7.03;3.30;;;;;;;20.00;83.10;96435.53;6155222;23;20104;-79
2022/06/23 01:07:42;;;;;;;7.50;3.83;;;;;;;20.05;82.86;96438.25;6154827;23;20097;-79
2022/06/23 01:10:20;;;;;;;9.65;3.78;;;;;;;20.02;80.54;96433.44;6154786;23;20358;-79
2022/06/23 01:12:56;;;;;;;7.65;3.50;;;;;;;19.96;79.49;96434.41;6154885;23;20032;-79
2022/06/23 01:15:35;;;;;;;7.57;3.05;;;;;;;19.92;80.21;96443.91;6155066;23;20076;-78
2022/06/23 01:18:06;;;;;;;6.53;3.20;;;;;;;19.92;79.37;96443.91;6155103;23;20100;-79
2022/06/23 01:20:45;;;;;;;9.02;3.60;;;;;;;19.89;78.62;96439.88;6154362;23;20076;-79
2022/06/23 01:23:30;;;;;;;7.45;2.75;;;;;;;19.87;78.50;96436.69;6155028;23;20024;-79
2022/06/23 01:26:20;;;;;;;7.97;2.55;;;;;;;19.87;79.06;96438.53;6154675;23;20024;-79
2022/06/23 01:28:51;;;;;;;5.97;2.42;;;;;;;19.88;80.72;96442.81;6154990;23;20017;-79
2022/06/23 01:31:23;;;;;;;6.32;3.63;;;;;;;19.99;85.49;96452.47;6154592;23;20025;-79
2022/06/23 01:33:55;;;;;;;6.38;3.20;;;;;;;20.04;84.44;96438.50;6154524;23;20021;-79
2022/06/23 01:36:26;;;;;;;;;;;;;;;20.03;83.24;96443.00;6155477;23;20381;-79
2022/06/23 01:39:02;;;;;;;10.60;3.47;;;;;;;19.98;80.27;96437.63;6156405;23;19940;-80
2022/06/23 01:41:33;;;;;;;7.30;3.22;;;;;;;19.97;81.55;96443.97;6155772;23;20025;-78
2022/06/23 01:44:10;;;;;;;9.80;4.32;;;;;;;20.01;81.38;96441.66;6154407;23;20100;-78
2022/06/23 01:46:40;;;;;;;10.13;3.50;;;;;;;20.03;83.20;96440.34;6154377;23;20061;-78
2022/06/23 01:49:16;;;;;;;6.90;3.03;;;;;;;19.99;80.33;96441.88;6154700;23;20104;-78
2022/06/23 01:51:48;;;;;;;5.10;3.28;;;;;;;19.99;82.38;96433.94;6154437;23;20022;-78
2022/06/23 01:54:22;;;;;;;;;;;;;;;19.99;81.94;96427.84;6155280;23;20037;-79
2022/06/23 01:56:59;;;;;;;8.38;2.58;;;;;;;19.96;82.33;96426.47;6155206;23;19920;-78
2022/06/23 01:59:47;;;;;;;4.75;2.35;;;;;;;19.95;84.49;96422.25;6154698;23;20069;-78
2022/06/23 02:02:33;;;;;;;7.90;2.67;;;;;;;19.92;81.92;96412.16;6154354;23;20057;-79
2022/06/23 02:05:15;;;;;;;4.07;2.60;;;;;;;19.92;80.60;96414.81;6154348;23;20022;-78
2022/06/23 02:07:51;;;;;;;9.27;3.22;;;;;;;19.88;81.28;96417.13;6154639;23;20101;-78
2022/06/23 02:10:29;;;;;;;8.48;2.28;;;;;;;19.85;79.11;96419.44;6154297;23;20018;-79
2022/06/23 02:13:00;;;;;;;7.88;2.83;;;;;;;19.79;78.65;96423.06;6154455;23;20049;-78
2022/06/23 02:15:35;;;;;;;7.00;2.97;;;;;;;19.81;83.82;96418.34;6154186;23;20093;-78
2022/06/23 02:18:14;;;;;;;12.43;3.50;;;;;;;19.84;86.03;96423.94;6155663;23;20022;-79
2022/06/23 02:20:48;;;;;;;9.00;3.45;;;;;;;19.78;81.50;96422.28;6156290;23;20044;-78
2022/06/23 02:23:24;;;;;;;8.27;2.63;;;;;;;19.78;83.13;96418.84;6156501;23;20096;-78
2022/06/23 02:25:58;;;;;;;5.25;2.70;;;;;;;19.75;80.92;96413.00;6156694;23;20334;-77
2022/06/23 02:28:37;;;;;;;6.10;2.65;;;;;;;19.74;82.36;96423.81;6156203;23;20081;-79
2022/06/23 02:31:17;;;;;;;7.00;2.45;;;;;;;19.73;82.98;96425.66;6156182;23;20338;-79
2022/06/23 02:33:53;;;;;;;8.00;2.63;;;;;;;19.69;79.26;96424.53;6155985;23;20021;-79
2022/06/23 02:36:39;;;;;;;9.13;2.42;;;;;;;19.64;78.56;96434.25;6156412;23;20410;-78
2022/06/23 02:39:15;;;;;;;4.40;1.90;;;;;;;19.60;78.02;96423.34;6157958;23;20026;-79
2022/06/23 02:41:51;;;;;;;9.70;3.00;;;;;;;19.55;78.20;96423.28;6156878;23;20307;-79
2022/06/23 02:44:38;;;;;;;7.13;2.42;;;;;;;19.51;77.83;96422.16;6156064;23;20026;-78
2022/06/23 02:47:26;;;;;;;3.58;2.20;;;;;;;19.48;79.97;96423.44;6156741;23;20100;-78
2022/06/23 02:50:18;;;;;;;7.22;2.53;;;;;;;19.43;78.21;96425.19;6156201;23;20025;-78
2022/06/23 02:53:05;;;;;;;6.22;2.42;;;;;;;19.40;80.00;96426.50;6156780;23;20017;-79
2022/06/23 02:56:10;;;;;;;8.07;2.55;;;;;;;19.39;78.69;96414.28;6156351;23;20398;-78
2022/06/23 02:58:44;;;;;;;7.07;2.38;;;;;;;19.38;79.25;96419.84;6156319;23;20423;-78
2022/06/23 03:01:19;;;;;;;6.90;2.72;;;;;;;19.39;81.38;96426.72;6155453;23;20045;-79
2022/06/23 03:03:56;;;;;;;5.45;2.58;;;;;;;19.38;79.59;96431.22;6156287;23;20572;-79
2022/06/23 03:06:31;;;;;;;7.45;2.78;;;;;;;19.39;80.95;96438.09;6156492;23;20032;-79
2022/06/23 03:09:05;;;;;;;10.43;3.20;;;;;;;19.40;80.77;96437.06;6156175;23;20406;-78
2022/06/23 03:11:55;;;;;;;6.50;2.67;;;;;;;19.39;80.72;96434.66;6155450;23;20052;-78
2022/06/23 03:14:35;;;;;;;5.18;3.03;;;;;;;19.37;80.65;96439.38;6155978;23;20470;-79
2022/06/23 03:17:12;;;;;;;7.25;2.75;;;;;;;19.39;82.39;96434.66;6156608;23;20057;-78
2022/06/23 03:19:46;;;;;;;5.03;2.60;;;;;;;19.40;82.76;96437.06;6156101;23;20100;-79
2022/06/23 03:22:21;;;;;;;9.40;2.42;;;;;;;19.39;79.53;96439.94;6155859;23;20027;-79
2022/06/23 03:24:57;;;;;;;6.95;2.53;;;;;;;19.37;79.01;96449.97;6155771;23;20092;-78
2022/06/23 03:27:30;;;;;;;7.00;2.90;;;;;;;19.38;80.48;96451.59;6156207;23;20057;-79
2022/06/23 03:30:02;;;;;;;5.88;2.40;;;;;;;19.39;81.42;96456.59;6155455;23;20393;-78
2022/06/23 03:32:33;;;;;;;;;;;;;;;19.39;80.35;96459.25;6156590;23;20029;-78
2022/06/23 03:35:11;;;;;;;6.28;3.20;;;;;;;19.34;78.50;96454.69;6155651;23;19932;-78
2022/06/23 03:37:47;;;;;;;7.50;3.35;;;;;;;19.34;81.95;96454.69;6155479;23;20100;-78
2022/06/23 03:43:15;;;;;;;5.22;2.13;;;;;;;19.32;79.40;96466.56;6154739;23;20053;-78
2022/06/23 03:45:48;;;;;;;7.13;2.67;;;;;;;19.28;79.32;96463.59;6154933;23;20101;-78
2022/06/23 03:48:23;;;;;;;8.52;2.67;;;;;;;19.27;78.41;96467.28;6155533;23;20049;-78
2022/06/23 03:50:58;;;;;;;7.88;2.40;;;;;;;19.23;77.27;96468.78;6154834;23;20025;-78
2022/06/23 03:53:29;;;;;;;7.63;2.72;;;;;;;19.19;80.11;96475.59;6155594;23;20021;-79
2022/06/23 03:55:59;;;;;;;9.75;2.70;;;;;;;19.16;78.55;96481.38;6154519;23;20112;-79
2022/06/23 03:58:39;;;;;;;8.10;2.50;;;;;;;19.12;77.47;96469.69;6155193;23;20049;-80
2022/06/23 04:01:14;;;;;;;13.18;2.85;;;;;;;19.09;77.72;96470.97;6156248;23;20059;-78
2022/06/23 04:03:47;;;;;;;9.02;2.70;;;;;;;19.07;77.17;96464.31;6156534;23;20361;-78
2022/06/23 04:06:19;;;;;;;;;;;;;;;19.07;78.29;96469.59;6157033;23;20025;-79
2022/06/23 04:08:55;;;;;;;5.80;2.60;;;;;;;19.07;79.84;96464.31;6156343;23;19944;-79
2022/06/23 04:11:46;;;;;;;5.90;2.38;;;;;;;19.04;78.31;96475.34;6155205;23;20044;-79
2022/06/23 04:14:21;;;;;;;6.43;2.65;;;;;;;19.06;79.70;96478.56;6155497;23;20026;-78
2022/06/23 04:16:53;;;;;;;10.60;3.00;;;;;;;19.07;78.96;96482.81;6155768;23;20026;-79
2022/06/23 04:19:25;;;;;;;10.07;3.67;;;;;;;19.10;79.08;96490.25;6155465;23;20060;-79
2022/06/23 04:22:16;;;;;;;7.50;3.03;;;;;;;19.15;79.50;96490.34;6155238;23;20021;-79
2022/06/23 04:24:46;;;;;;;6.00;3.00;;;;;;;19.16;79.18;96489.31;6155608;23;20100;-78
2022/06/23 04:27:19;;;;;;;7.03;2.70;;;;;;;19.19;79.17;96493.31;6155736;23;20403;-79
2022/06/23 04:29:51;;;;;;;9.05;3.00;;;;;;;19.20;78.30;96500.19;6155390;23;20026;-78
2022/06/23 04:32:23;;;;;;;4.75;2.95;;;;;;;19.23;79.27;96495.25;6154837;23;20084;-78
2022/06/23 04:34:55;;;;;;;8.77;3.22;;;;;;;19.23;77.60;96494.44;6155444;23;20409;-78
2022/06/23 04:37:33;;;;;;;5.70;3.57;;;;;;;19.24;77.71;96502.16;6155644;23;20022;-78
2022/06/23 04:40:08;;;;;;;6.22;3.53;;;;;;;19.26;78.94;96509.81;6156760;23;20458;-78
2022/06/23 04:42:38;;;;;;;8.18;3.58;;;;;;;19.29;80.04;96504.88;6154733;23;20120;-78
2022/06/23 06:01:53;;;;;;;20.10;13.90;;;;;;;20.17;83.47;96521.03;6155816;23;20411;-79
2022/06/23 06:04:26;;;;;;;19.25;13.13;;;;;;;20.19;82.00;96522.63;6155565;23;20486;-76
2022/06/23 06:06:54;;;;;;;19.20;13.23;;;;;;;20.21;81.60;96520.53;6153731;23;20096;-76
2022/06/23 06:09:37;;;;;;;22.10;13.63;;;;;;;20.23;81.24;96524.56;6154310;23;20032;-77
2022/06/23 06:12:08;;;;;;;22.08;13.25;;;;;;;20.27;80.12;96523.03;6154074;23;20023;-77
2022/06/23 06:14:40;;;;;;;23.13;13.75;;;;;;;20.31;79.53;96533.91;6154587;23;20018;-76
2022/06/23 06:17:19;;;;;;;25.48;14.30;;;;;;;20.38;82.47;96526.59;6155320;23;20041;-76
2022/06/23 06:19:48;;;;;;;22.73;13.95;;;;;;;20.41;80.30;96522.66;6154387;23;20548;-76
2022/06/23 06:22:27;;;;;;;23.17;15.13;;;;;;;20.47;81.97;96527.78;6155061;23;20345;-76
2022/06/23 06:24:56;;;;;;;27.08;15.05;;;;;;;20.54;81.03;96524.94;6154210;23;20461;-77
2022/06/23 06:27:24;;;;;;;25.75;15.10;;;;;;;20.58;80.14;96524.22;6153806;23;20108;-77
2022/06/23 06:29:53;;;;;;;25.55;15.95;;;;;;;20.61;79.06;96524.78;6154575;23;20335;-77
2022/06/23 06:32:30;;;;;;;24.30;15.18;;;;;;;20.67;80.22;96513.97;6154242;23;20105;-76
2022/06/23 06:35:08;;;;;;;23.00;14.35;;;;;;;20.76;80.60;96522.28;6154572;23;20048;-76
2022/06/23 06:37:42;;;;;;;25.15;13.93;;;;;;;20.81;79.16;96517.03;6155184;23;20021;-75
2022/06/23 06:40:10;;;;;;;25.17;13.90;;;;;;;20.87;79.44;96521.34;6154577;23;20025;-76
2022/06/23 06:42:43;;;;;;;25.55;14.80;;;;;;;20.91;79.46;96519.00;6154358;23;20018;-74
2022/06/23 06:45:13;;;;;;;21.00;12.45;;;;;;;20.95;79.62;96526.22;6154345;23;20034;-75
2022/06/23 06:47:44;;;;;;;24.63;13.02;;;;;;;20.98;76.08;96527.56;6154014;23;20030;-75
2022/06/23 06:50:31;;;;;;;21.75;12.98;;;;;;;21.04;77.75;96528.44;6154139;23;20025;-76
2022/06/23 06:53:05;;;;;;;31.33;15.27;;;;;;;21.08;77.06;96519.72;6154829;23;20409;-75
2022/06/23 06:55:38;;;;;;;26.05;13.10;;;;;;;21.11;74.86;96519.22;6154675;23;20166;-76
2022/06/23 06:58:15;;;;;;;22.80;11.93;;;;;;;21.17;75.53;96520.06;6155082;23;20406;-76
2022/06/23 07:00:50;;;;;;;25.55;12.45;;;;;;;21.24;75.21;96533.13;6154107;23;20108;-75
2022/06/23 07:03:23;;;;;;;26.13;12.80;;;;;;;21.31;76.40;96529.19;6154654;23;20029;-75
2022/06/23 07:05:53;;;;;;;;;;;;;;;21.39;76.48;96534.06;6156619;23;20601;-75
2022/06/23 07:08:24;;;;;;;23.77;10.85;;;;;;;21.47;75.20;96532.00;6156322;23;19924;-75
2022/06/23 07:10:56;;;;;;;25.63;11.25;;;;;;;21.52;73.43;96534.72;6156094;23;20100;-76
2022/06/23 07:13:30;;;;;;;20.42;11.23;;;;;;;21.58;72.65;96526.56;6156174;23;20063;-75
2022/06/23 07:16:01;;;;;;;22.67;10.23;;;;;;;21.65;71.82;96534.31;6156712;23;20025;-76
2022/06/23 07:18:32;;;;;;;17.92;9.88;;;;;;;;;;6156820;23;20088;-75
2022/06/23 07:21:06;;;;;;;24.13;11.13;;;;;;;21.79;73.89;96535.44;6162533;23;20045;-76
2022/06/23 07:23:44;;;;;;;20.88;9.73;;;;;;;21.83;71.67;96534.97;6173910;23;20022;-76
2022/06/23 07:26:25;;;;;;;19.70;10.05;;;;;;;21.86;73.28;96529.91;6159318;23;20085;-76
2022/06/23 13:43:59;;;;;;;5.15;1.40;;;;;;;28.19;41.89;96240.88;6146205;23;20008;-85
2022/06/23 15:03:31;;;;;;;5.05;1.30;;;;;;;27.88;42.58;96141.63;6168308;23;20005;-85
2022/06/23 15:20:06;;;;;;;5.82;1.60;;;;;;;27.93;43.10;96130.75;6179717;23;20037;-84
2022/06/23 15:23:14;;;;;;;3.78;1.10;;;;;;;27.96;44.47;96126.69;6146867;23;20018;-85
2022/06/23 18:08:00;;;;;;;6.80;2.67;;;;;;;27.56;43.00;96024.72;6166009;23;20032;-81
2022/06/23 18:10:32;;;;;;;6.90;2.90;;;;;;;27.53;43.88;96018.88;6179222;23;20041;-80
2022/06/23 18:13:07;;;;;;;5.30;1.90;;;;;;;27.52;44.83;96027.19;6176437;23;20465;-80
2022/06/23 18:15:43;;;;;;;7.63;2.10;;;;;;;27.48;45.13;96026.22;6175646;23;20056;-79
2022/06/23 18:18:22;;;;;;;5.35;2.15;;;;;;;27.45;45.61;96026.84;6180754;23;20012;-80
2022/06/23 18:20:58;;;;;;;3.97;1.88;;;;;;;27.41;48.44;96026.66;6182719;23;20025;-80
2022/06/23 18:42:31;;;;;;;10.80;2.45;;;;;;;27.16;45.76;96040.56;6173231;23;20025;-79
2022/06/23 18:45:02;;;;;;;7.70;2.95;;;;;;;27.12;48.90;96035.84;6160227;23;20354;-79
2022/06/23 18:47:37;;;;;;;10.57;2.60;;;;;;;27.10;46.35;96037.22;6156902;23;20026;-79
2022/06/23 18:50:13;;;;;;;7.18;2.90;;;;;;;27.07;47.12;96035.97;6165211;23;20033;-80
2022/06/23 18:52:47;;;;;;;5.50;2.22;;;;;;;27.02;46.37;96046.75;6158073;23;20088;-79
2022/06/23 18:55:32;;;;;;;6.40;2.50;;;;;;;26.99;47.03;96050.03;6155490;23;20057;-79
2022/06/23 18:58:04;;;;;;;6.65;2.35;;;;;;;26.95;47.49;96040.25;6156075;23;20030;-77
2022/06/23 19:00:48;;;;;;;9.13;2.53;;;;;;;26.90;46.63;96036.59;6160548;23;20057;-80
2022/06/23 19:03:21;;;;;;;8.40;3.92;;;;;;;26.85;46.44;96042.06;6160413;23;20421;-77
2022/06/23 19:05:53;;;;;;;11.20;2.75;;;;;;;26.79;46.72;96042.47;6160690;23;20025;-78
2022/06/23 19:08:26;;;;;;;8.80;2.47;;;;;;;26.73;47.35;96046.31;6160517;23;20331;-79
2022/06/23 19:10:59;;;;;;;6.38;2.60;;;;;;;26.68;47.29;96041.88;6160969;23;20434;-78
2022/06/23 19:13:47;;;;;;;7.95;3.08;;;;;;;26.60;47.96;96051.38;6162508;23;20049;-80
2022/06/23 19:16:29;;;;;;;6.55;2.30;;;;;;;26.56;49.70;96050.38;6158513;23;20125;-79
2022/06/23 19:19:11;;;;;;;9.00;2.47;;;;;;;26.47;48.50;96052.13;6160323;23;20026;-78
2022/06/23 19:21:44;;;;;;;;;;;;;;;26.43;48.60;96054.59;6159273;23;20232;-79
2022/06/23 19:24:21;;;;;;;6.63;2.55;;;;;;;26.34;49.54;96053.72;6158111;23;19917;-79
2022/06/23 19:26:55;;;;;;;6.78;2.25;;;;;;;26.25;49.45;96061.63;6160747;23;20021;-78
2022/06/23 19:29:37;;;;;;;7.03;2.83;;;;;;;26.21;52.89;96071.31;6159707;23;20056;-79
2022/06/23 19:32:15;;;;;;;7.47;2.90;;;;;;;26.15;50.24;96061.81;6158927;23;20350;-79
2022/06/23 19:34:49;;;;;;;5.13;2.35;;;;;;;26.08;50.88;96056.06;6159164;23;20060;-79
2022/06/23 19:37:29;;;;;;;7.97;2.75;;;;;;;26.05;50.87;96067.34;6165165;23;20072;-79
2022/06/23 19:46:55;;;;;;;7.50;2.50;;;;;;;25.96;51.21;96069.91;6161381;23;21099;-80
2022/06/23 19:49:43;;;;;;;10.63;2.67;;;;;;;25.90;50.69;96071.06;6172320;23;20010;-80
2022/06/23 19:52:43;;;;;;;10.25;3.03;;;;;;;25.85;50.58;96071.91;6149680;23;20470;-82
2022/06/23 23:42:57;;;;;;;4.82;1.20;;;;;;;21.93;69.15;96285.38;6163775;23;20008;-80
2022/06/23 23:45:28;;;;;;;5.43;1.75;;;;;;;21.83;69.84;96288.81;6184190;23;20016;-81
2022/06/23 23:48:03;;;;;;;2.17;0.93;;;;;;;21.75;68.61;96278.69;6184479;23;20013;-81
2022/06/23 23:50:33;;;;;;;6.32;2.03;;;;;;;21.69;71.88;96275.25;6184721;23;20022;-81
2022/06/23 23:53:04;;;;;;;5.10;1.90;;;;;;;21.67;71.77;96268.59;6184497;23;20142;-81
2022/06/23 23:55:35;;;;;;;8.13;4.93;;;;;;;21.61;73.11;96262.47;6185004;23;20017;-81
2022/06/23 23:58:08;;;;;;;58.88;52.65;;;;;;;21.45;69.33;96247.53;6184595;23;20010;-81
